KOZW

Livingston County Spencer J Hardy Airport

Howell, Michigan, USA
METAR KOZW 181515Z AUTO 22014G18KT 7SM OVC015 M07/M09 A3004 RMK AO2 T10661090
Observed Flight Rules
Jan-18 @ 15:15 UTC (17 minutes ago) Marginal Visual Flight Rules
Wind Visibility Clouds
220° at 14 knots
 Gusting to 18 knots
7 miles
  • Overcast at 1,500' AGL
Temperatures Readings
Current -7°C / 19°F
Dewpoint -9°C / 16°F
Humidity 86%
Altimeter 30.04" Hg
Pressure 1017 hPa
Elevation 293
METAR KOZW 181515Z AUTO 22014G18KT 7SM OVC015 M07/M09 A3004 RMK AO2 T10661090
Observed Flight Rules
Jan-18 @ 15:15 UTC
(17 minutes ago)
MVFR
Wind Visibility
220° at 14 knots
 Gusting to 18 knots
7 miles
Clouds
  • Overcast at 1,500' AGL
Temperature Dewpoint
-7°C / 19°F -9°C / 16°F
Humidity Altimeter Pressure
86% 30.04" Hg 1017 hPa